sensor_id;sensor_type;location;lat;lon;timestamp;pressure;altitude;pressure_sealevel;temperature;humidity
12781;BME280;6454;43.304;24.344;2023-01-08T00:01:04;100886.28;;;0.37;80.21
12781;BME280;6454;43.304;24.344;2023-01-08T00:03:31;100887.06;;;0.31;79.30
12781;BME280;6454;43.304;24.344;2023-01-08T00:06:00;100890.72;;;0.17;80.68
12781;BME280;6454;43.304;24.344;2023-01-08T00:08:27;100892.78;;;0.22;81.49
12781;BME280;6454;43.304;24.344;2023-01-08T00:10:54;100889.72;;;0.25;80.10
12781;BME280;6454;43.304;24.344;2023-01-08T00:13:21;100883.56;;;0.24;80.06
12781;BME280;6454;43.304;24.344;2023-01-08T00:15:48;100868.28;;;0.05;80.28
12781;BME280;6454;43.304;24.344;2023-01-08T00:18:16;100888.69;;;0.26;79.68
12781;BME280;6454;43.304;24.344;2023-01-08T00:20:44;100888.06;;;0.24;79.80
12781;BME280;6454;43.304;24.344;2023-01-08T00:23:11;100887.84;;;0.19;80.42
12781;BME280;6454;43.304;24.344;2023-01-08T00:25:38;100897.69;;;0.12;81.17
12781;BME280;6454;43.304;24.344;2023-01-08T00:28:05;100897.50;;;0.20;79.72
12781;BME280;6454;43.304;24.344;2023-01-08T00:30:31;100900.97;;;0.14;79.51
12781;BME280;6454;43.304;24.344;2023-01-08T00:32:58;100899.28;;;0.06;79.90
12781;BME280;6454;43.304;24.344;2023-01-08T00:35:26;100901.56;;;0.09;79.97
12781;BME280;6454;43.304;24.344;2023-01-08T00:37:53;100900.53;;;0.10;79.45
12781;BME280;6454;43.304;24.344;2023-01-08T00:40:20;100897.84;;;-0.03;79.56
12781;BME280;6454;43.304;24.344;2023-01-08T00:42:47;100897.22;;;0.02;80.93
12781;BME280;6454;43.304;24.344;2023-01-08T00:45:14;100898.69;;;0.04;79.52
12781;BME280;6454;43.304;24.344;2023-01-08T00:47:41;100896.84;;;0.05;79.14
12781;BME280;6454;43.304;24.344;2023-01-08T00:50:08;100904.00;;;-0.03;79.55
12781;BME280;6454;43.304;24.344;2023-01-08T00:52:37;100909.75;;;0.01;79.49
12781;BME280;6454;43.304;24.344;2023-01-08T00:55:04;100903.41;;;0.02;79.29
12781;BME280;6454;43.304;24.344;2023-01-08T00:57:33;100906.66;;;-0.03;79.21
12781;BME280;6454;43.304;24.344;2023-01-08T01:00:00;100905.22;;;-0.05;80.08
12781;BME280;6454;43.304;24.344;2023-01-08T01:02:27;100905.00;;;-0.04;79.26
12781;BME280;6454;43.304;24.344;2023-01-08T01:04:54;100903.34;;;-0.11;79.46
12781;BME280;6454;43.304;24.344;2023-01-08T01:07:20;100905.97;;;-0.18;79.93
12781;BME280;6454;43.304;24.344;2023-01-08T01:09:48;100902.91;;;-0.15;79.32
12781;BME280;6454;43.304;24.344;2023-01-08T01:12:15;100911.94;;;-0.16;79.26
12781;BME280;6454;43.304;24.344;2023-01-08T01:14:42;100907.00;;;-0.19;79.09
12781;BME280;6454;43.304;24.344;2023-01-08T01:17:09;100906.91;;;-0.32;78.99
12781;BME280;6454;43.304;24.344;2023-01-08T01:19:36;100911.19;;;-0.37;79.39
12781;BME280;6454;43.304;24.344;2023-01-08T01:22:03;100909.34;;;-0.37;79.80
12781;BME280;6454;43.304;24.344;2023-01-08T01:24:30;100910.19;;;-0.36;78.67
12781;BME280;6454;43.304;24.344;2023-01-08T01:26:58;100904.22;;;-0.38;78.95
12781;BME280;6454;43.304;24.344;2023-01-08T01:29:25;100910.56;;;-0.39;79.16
12781;BME280;6454;43.304;24.344;2023-01-08T01:31:52;100904.41;;;-0.40;79.25
12781;BME280;6454;43.304;24.344;2023-01-08T01:34:19;100914.88;;;-0.38;79.70
12781;BME280;6454;43.304;24.344;2023-01-08T01:36:46;100903.41;;;-0.39;78.97
12781;BME280;6454;43.304;24.344;2023-01-08T01:39:13;100850.50;;;-0.76;78.73
12781;BME280;6454;43.304;24.344;2023-01-08T01:41:41;100908.66;;;-0.52;78.86
12781;BME280;6454;43.304;24.344;2023-01-08T01:44:36;100905.56;;;-0.55;79.44
12781;BME280;6454;43.304;24.344;2023-01-08T01:47:20;100904.69;;;-0.62;79.91
12781;BME280;6454;43.304;24.344;2023-01-08T01:49:55;100904.28;;;-0.59;79.43
12781;BME280;6454;43.304;24.344;2023-01-08T01:52:24;100901.22;;;-0.63;79.55
12781;BME280;6454;43.304;24.344;2023-01-08T01:54:54;100899.75;;;-0.66;79.67
12781;BME280;6454;43.304;24.344;2023-01-08T01:57:22;100908.34;;;-0.70;79.61
12781;BME280;6454;43.304;24.344;2023-01-08T01:59:53;100904.41;;;-0.74;80.31
12781;BME280;6454;43.304;24.344;2023-01-08T02:02:20;100898.91;;;-0.73;79.60
12781;BME280;6454;43.304;24.344;2023-01-08T02:04:47;100910.53;;;-0.80;79.49
12781;BME280;6454;43.304;24.344;2023-01-08T02:07:16;100912.75;;;-0.84;79.96
12781;BME280;6454;43.304;24.344;2023-01-08T02:09:48;100922.19;;;-0.81;80.12
12781;BME280;6454;43.304;24.344;2023-01-08T02:12:22;100925.59;;;-0.87;79.99
12781;BME280;6454;43.304;24.344;2023-01-08T02:14:58;100920.94;;;-0.85;80.23
12781;BME280;6454;43.304;24.344;2023-01-08T02:17:33;100918.44;;;-0.87;79.06
12781;BME280;6454;43.304;24.344;2023-01-08T02:20:07;100923.72;;;-0.93;79.32
12781;BME280;6454;43.304;24.344;2023-01-08T02:22:45;100923.50;;;-0.98;79.24
12781;BME280;6454;43.304;24.344;2023-01-08T02:25:19;100918.91;;;-1.04;79.70
12781;BME280;6454;43.304;24.344;2023-01-08T02:27:50;100914.66;;;-0.99;80.20
12781;BME280;6454;43.304;24.344;2023-01-08T02:30:19;100909.16;;;-0.97;79.90
12781;BME280;6454;43.304;24.344;2023-01-08T02:32:46;100916.66;;;-1.07;79.24
12781;BME280;6454;43.304;24.344;2023-01-08T02:35:13;100906.16;;;-1.15;79.09
12781;BME280;6454;43.304;24.344;2023-01-08T02:37:39;100918.56;;;-1.22;79.81
12781;BME280;6454;43.304;24.344;2023-01-08T02:40:16;100905.19;;;-1.29;81.03
12781;BME280;6454;43.304;24.344;2023-01-08T02:42:47;100908.31;;;-1.25;79.62
12781;BME280;6454;43.304;24.344;2023-01-08T02:45:25;100902.97;;;-1.25;79.85
12781;BME280;6454;43.304;24.344;2023-01-08T02:47:55;100907.94;;;-1.22;79.80
12781;BME280;6454;43.304;24.344;2023-01-08T02:50:27;100902.97;;;-1.25;79.40
12781;BME280;6454;43.304;24.344;2023-01-08T02:53:00;100902.47;;;-1.36;80.23
12781;BME280;6454;43.304;24.344;2023-01-08T02:55:29;100911.34;;;-1.28;79.59
12781;BME280;6454;43.304;24.344;2023-01-08T02:57:58;100912.66;;;-1.39;79.25
12781;BME280;6454;43.304;24.344;2023-01-08T03:00:27;100906.47;;;-1.46;79.37
12781;BME280;6454;43.304;24.344;2023-01-08T03:03:02;100911.09;;;-1.55;80.44
12781;BME280;6454;43.304;24.344;2023-01-08T03:05:32;100911.47;;;-1.58;81.81
12781;BME280;6454;43.304;24.344;2023-01-08T03:07:59;100869.25;;;-1.82;82.59
12781;BME280;6454;43.304;24.344;2023-01-08T03:10:29;100909.06;;;-1.53;83.26
12781;BME280;6454;43.304;24.344;2023-01-08T03:13:00;100910.41;;;-1.42;83.88
12781;BME280;6454;43.304;24.344;2023-01-08T03:15:33;100905.00;;;-1.27;84.19
12781;BME280;6454;43.304;24.344;2023-01-08T03:18:07;100913.00;;;-1.27;84.63
12781;BME280;6454;43.304;24.344;2023-01-08T03:20:36;100879.03;;;-1.25;85.10
12781;BME280;6454;43.304;24.344;2023-01-08T03:23:06;100906.25;;;-1.02;85.20
12781;BME280;6454;43.304;24.344;2023-01-08T03:25:34;100910.63;;;-0.95;84.62
12781;BME280;6454;43.304;24.344;2023-01-08T03:28:06;100915.16;;;-0.89;83.48
12781;BME280;6454;43.304;24.344;2023-01-08T03:30:39;100911.25;;;-0.93;83.58
12781;BME280;6454;43.304;24.344;2023-01-08T03:33:08;100906.09;;;-0.94;83.83
12781;BME280;6454;43.304;24.344;2023-01-08T03:35:37;100904.72;;;-0.90;82.80
12781;BME280;6454;43.304;24.344;2023-01-08T03:38:09;100901.59;;;-0.94;83.96
12781;BME280;6454;43.304;24.344;2023-01-08T03:40:40;100912.13;;;-0.86;84.42
12781;BME280;6454;43.304;24.344;2023-01-08T03:43:09;100909.50;;;-0.79;84.06
12781;BME280;6454;43.304;24.344;2023-01-08T03:45:41;100906.97;;;-0.87;83.52
12781;BME280;6454;43.304;24.344;2023-01-08T03:48:10;100913.59;;;-0.77;82.23
12781;BME280;6454;43.304;24.344;2023-01-08T03:50:39;100916.03;;;-0.82;80.94
12781;BME280;6454;43.304;24.344;2023-01-08T03:53:07;100914.16;;;-0.88;80.65
12781;BME280;6454;43.304;24.344;2023-01-08T03:55:34;100907.38;;;-0.90;80.87
12781;BME280;6454;43.304;24.344;2023-01-08T03:58:00;100911.84;;;-0.97;81.31
12781;BME280;6454;43.304;24.344;2023-01-08T04:00:27;100907.72;;;-1.00;81.86
12781;BME280;6454;43.304;24.344;2023-01-08T04:02:55;100909.16;;;-0.97;80.27
12781;BME280;6454;43.304;24.344;2023-01-08T04:05:23;100902.94;;;-1.04;80.10
12781;BME280;6454;43.304;24.344;2023-01-08T04:07:50;100907.97;;;-1.16;80.13
12781;BME280;6454;43.304;24.344;2023-01-08T04:10:16;100882.81;;;-1.35;80.30
12781;BME280;6454;43.304;24.344;2023-01-08T04:12:43;100907.47;;;-1.26;81.98
12781;BME280;6454;43.304;24.344;2023-01-08T04:15:10;100908.56;;;-1.20;81.36
12781;BME280;6454;43.304;24.344;2023-01-08T04:17:37;100907.53;;;-1.19;81.27
12781;BME280;6454;43.304;24.344;2023-01-08T04:20:06;100915.50;;;-1.19;82.14
12781;BME280;6454;43.304;24.344;2023-01-08T04:22:34;100912.91;;;-1.13;82.63
12781;BME280;6454;43.304;24.344;2023-01-08T04:25:00;100903.03;;;-1.19;82.79
12781;BME280;6454;43.304;24.344;2023-01-08T04:27:27;100912.97;;;-1.06;82.10
12781;BME280;6454;43.304;24.344;2023-01-08T04:29:54;100912.59;;;-1.03;80.81
12781;BME280;6454;43.304;24.344;2023-01-08T04:32:21;100911.97;;;-1.05;80.14
12781;BME280;6454;43.304;24.344;2023-01-08T04:34:47;100907.59;;;-1.13;80.16
12781;BME280;6454;43.304;24.344;2023-01-08T04:37:16;100917.38;;;-1.20;80.55
12781;BME280;6454;43.304;24.344;2023-01-08T04:39:42;100916.28;;;-1.25;81.38
12781;BME280;6454;43.304;24.344;2023-01-08T04:42:09;100917.53;;;-1.21;81.37
12781;BME280;6454;43.304;24.344;2023-01-08T04:44:36;100922.50;;;-1.18;81.06
12781;BME280;6454;43.304;24.344;2023-01-08T04:47:03;100923.75;;;-1.14;80.51
12781;BME280;6454;43.304;24.344;2023-01-08T04:49:30;100916.22;;;-1.11;80.45
12781;BME280;6454;43.304;24.344;2023-01-08T04:51:56;100911.50;;;-1.09;80.43
12781;BME280;6454;43.304;24.344;2023-01-08T04:54:25;100915.47;;;-1.05;79.14
12781;BME280;6454;43.304;24.344;2023-01-08T04:56:51;100921.56;;;-1.04;78.93
12781;BME280;6454;43.304;24.344;2023-01-08T04:59:19;100912.47;;;-1.16;78.93
12781;BME280;6454;43.304;24.344;2023-01-08T05:01:45;100917.53;;;-1.21;79.31
12781;BME280;6454;43.304;24.344;2023-01-08T05:04:12;100907.03;;;-1.30;80.34
12781;BME280;6454;43.304;24.344;2023-01-08T05:06:39;100923.66;;;-1.27;79.67
12781;BME280;6454;43.304;24.344;2023-01-08T05:09:06;100917.50;;;-1.28;78.95
12781;BME280;6454;43.304;24.344;2023-01-08T05:11:34;100915.59;;;-1.34;78.52
12781;BME280;6454;43.304;24.344;2023-01-08T05:14:01;100922.06;;;-1.43;78.72
12781;BME280;6454;43.304;24.344;2023-01-08T05:16:28;100919.25;;;-1.56;79.08
12781;BME280;6454;43.304;24.344;2023-01-08T05:18:56;100919.44;;;-1.58;79.66
12781;BME280;6454;43.304;24.344;2023-01-08T05:21:23;100928.44;;;-1.59;79.35
12781;BME280;6454;43.304;24.344;2023-01-08T05:23:50;100933.97;;;-1.60;79.22
12781;BME280;6454;43.304;24.344;2023-01-08T05:26:17;100927.53;;;-1.66;79.07
12781;BME280;6454;43.304;24.344;2023-01-08T05:28:45;100932.59;;;-1.71;79.53
12781;BME280;6454;43.304;24.344;2023-01-08T05:31:12;100930.69;;;-1.77;80.20
12781;BME280;6454;43.304;24.344;2023-01-08T05:33:40;100930.94;;;-1.72;79.26
12781;BME280;6454;43.304;24.344;2023-01-08T05:36:08;100930.31;;;-1.74;78.90
12781;BME280;6454;43.304;24.344;2023-01-08T05:38:36;100941.72;;;-1.80;79.03
12781;BME280;6454;43.304;24.344;2023-01-08T05:41:03;100935.94;;;-1.83;79.29
12781;BME280;6454;43.304;24.344;2023-01-08T05:43:31;100947.78;;;-1.86;79.79
12781;BME280;6454;43.304;24.344;2023-01-08T05:46:00;100947.84;;;-1.79;79.51
12781;BME280;6454;43.304;24.344;2023-01-08T05:48:28;100942.16;;;-1.76;79.21
12781;BME280;6454;43.304;24.344;2023-01-08T05:50:57;100943.53;;;-1.80;78.70
12781;BME280;6454;43.304;24.344;2023-01-08T05:53:24;100950.22;;;-1.84;79.08
12781;BME280;6454;43.304;24.344;2023-01-08T05:55:51;100945.66;;;-1.90;79.15
12781;BME280;6454;43.304;24.344;2023-01-08T05:58:17;100947.69;;;-1.92;79.58
12781;BME280;6454;43.304;24.344;2023-01-08T06:00:45;100952.19;;;-1.93;79.21
12781;BME280;6454;43.304;24.344;2023-01-08T06:03:14;100956.03;;;-1.96;79.21
12781;BME280;6454;43.304;24.344;2023-01-08T06:05:40;100961.34;;;-1.96;79.34
12781;BME280;6454;43.304;24.344;2023-01-08T06:08:07;100966.88;;;-1.97;79.49
12781;BME280;6454;43.304;24.344;2023-01-08T06:10:36;100968.50;;;-1.96;80.25
12781;BME280;6454;43.304;24.344;2023-01-08T06:13:05;100962.63;;;-1.91;79.58
12781;BME280;6454;43.304;24.344;2023-01-08T06:15:32;100970.16;;;-1.95;79.11
12781;BME280;6454;43.304;24.344;2023-01-08T06:18:01;100970.88;;;-2.01;79.18
12781;BME280;6454;43.304;24.344;2023-01-08T06:20:29;100970.25;;;-2.03;79.35
12781;BME280;6454;43.304;24.344;2023-01-08T06:22:56;100971.66;;;-2.07;79.75
12781;BME280;6454;43.304;24.344;2023-01-08T06:25:23;100975.84;;;-1.98;80.38
12781;BME280;6454;43.304;24.344;2023-01-08T06:27:50;100966.03;;;-1.98;79.66
12781;BME280;6454;43.304;24.344;2023-01-08T06:30:17;100940.56;;;-2.21;80.02
12781;BME280;6454;43.304;24.344;2023-01-08T06:32:44;100971.78;;;-1.94;80.44
12781;BME280;6454;43.304;24.344;2023-01-08T06:35:11;100971.44;;;-1.91;80.68
12781;BME280;6454;43.304;24.344;2023-01-08T06:37:39;100978.22;;;-1.88;80.96
12781;BME280;6454;43.304;24.344;2023-01-08T06:40:07;100969.22;;;-1.73;81.28
12781;BME280;6454;43.304;24.344;2023-01-08T06:42:33;100971.09;;;-1.67;80.81
12781;BME280;6454;43.304;24.344;2023-01-08T06:45:00;100972.41;;;-1.63;80.66
12781;BME280;6454;43.304;24.344;2023-01-08T06:47:27;100968.91;;;-1.63;81.54
12781;BME280;6454;43.304;24.344;2023-01-08T06:49:54;100973.59;;;-1.65;82.21
12781;BME280;6454;43.304;24.344;2023-01-08T06:52:21;100969.88;;;-1.50;82.99
12781;BME280;6454;43.304;24.344;2023-01-08T06:54:49;100976.16;;;-1.36;83.19
12781;BME280;6454;43.304;24.344;2023-01-08T06:57:15;100967.28;;;-1.22;82.92
12781;BME280;6454;43.304;24.344;2023-01-08T06:59:42;100971.28;;;-1.11;82.51
12781;BME280;6454;43.304;24.344;2023-01-08T07:02:12;100971.38;;;-1.05;83.17
12781;BME280;6454;43.304;24.344;2023-01-08T07:04:39;100969.59;;;-0.98;83.77
12781;BME280;6454;43.304;24.344;2023-01-08T07:07:06;100970.97;;;-0.81;83.77
12781;BME280;6454;43.304;24.344;2023-01-08T07:09:33;100970.25;;;-0.68;83.87
12781;BME280;6454;43.304;24.344;2023-01-08T07:12:02;100972.78;;;-0.60;83.98
12781;BME280;6454;43.304;24.344;2023-01-08T07:14:29;100980.81;;;-0.53;85.23
12781;BME280;6454;43.304;24.344;2023-01-08T07:16:56;100978.78;;;-0.45;85.88
12781;BME280;6454;43.304;24.344;2023-01-08T07:19:22;100983.63;;;-0.27;86.45
12781;BME280;6454;43.304;24.344;2023-01-08T07:21:49;100981.66;;;-0.12;86.87
12781;BME280;6454;43.304;24.344;2023-01-08T07:24:16;100989.50;;;-0.11;87.01
12781;BME280;6454;43.304;24.344;2023-01-08T07:26:42;100982.59;;;0.08;87.21
12781;BME280;6454;43.304;24.344;2023-01-08T07:29:11;100991.13;;;0.25;87.05
12781;BME280;6454;43.304;24.344;2023-01-08T07:31:37;100984.34;;;0.35;87.34
12781;BME280;6454;43.304;24.344;2023-01-08T07:34:05;100932.34;;;0.12;87.43
12781;BME280;6454;43.304;24.344;2023-01-08T07:36:31;100986.75;;;0.64;87.02
12781;BME280;6454;43.304;24.344;2023-01-08T07:38:58;100978.72;;;0.71;87.16
12781;BME280;6454;43.304;24.344;2023-01-08T07:41:25;100980.59;;;0.77;87.27
12781;BME280;6454;43.304;24.344;2023-01-08T07:43:52;100978.75;;;0.97;87.27
12781;BME280;6454;43.304;24.344;2023-01-08T07:46:20;100977.16;;;1.09;86.95
12781;BME280;6454;43.304;24.344;2023-01-08T07:48:48;100975.28;;;1.10;87.14
12781;BME280;6454;43.304;24.344;2023-01-08T07:51:15;100979.63;;;1.30;87.36
12781;BME280;6454;43.304;24.344;2023-01-08T07:53:41;100973.66;;;1.42;86.29
12781;BME280;6454;43.304;24.344;2023-01-08T07:56:09;100972.00;;;1.47;86.64
12781;BME280;6454;43.304;24.344;2023-01-08T07:58:36;100971.81;;;1.62;86.91
12781;BME280;6454;43.304;24.344;2023-01-08T08:01:06;100969.72;;;1.77;86.54
12781;BME280;6454;43.304;24.344;2023-01-08T08:03:34;100976.88;;;1.83;86.55
12781;BME280;6454;43.304;24.344;2023-01-08T08:06:01;100973.38;;;1.89;87.01
12781;BME280;6454;43.304;24.344;2023-01-08T08:08:28;100973.97;;;2.04;86.32
12781;BME280;6454;43.304;24.344;2023-01-08T08:10:55;100977.84;;;2.08;85.71
12781;BME280;6454;43.304;24.344;2023-01-08T08:13:21;100970.25;;;2.12;85.88
12781;BME280;6454;43.304;24.344;2023-01-08T08:15:49;100971.00;;;2.25;86.30
12781;BME280;6454;43.304;24.344;2023-01-08T08:18:16;100967.66;;;2.36;86.46
12781;BME280;6454;43.304;24.344;2023-01-08T08:20:44;100971.13;;;2.43;86.94
12781;BME280;6454;43.304;24.344;2023-01-08T08:23:13;100976.84;;;2.53;87.46
12781;BME280;6454;43.304;24.344;2023-01-08T08:25:40;100978.81;;;2.71;87.58
12781;BME280;6454;43.304;24.344;2023-01-08T08:28:08;100979.38;;;2.80;87.57
12781;BME280;6454;43.304;24.344;2023-01-08T08:30:36;100965.91;;;2.93;88.08
12781;BME280;6454;43.304;24.344;2023-01-08T08:33:05;100967.06;;;3.03;88.28
12781;BME280;6454;43.304;24.344;2023-01-08T08:35:32;100968.22;;;3.14;88.29
12781;BME280;6454;43.304;24.344;2023-01-08T08:38:01;100967.94;;;3.22;88.06
12781;BME280;6454;43.304;24.344;2023-01-08T08:40:28;100970.75;;;3.34;87.98
12781;BME280;6454;43.304;24.344;2023-01-08T08:42:55;100970.00;;;3.45;87.59
12781;BME280;6454;43.304;24.344;2023-01-08T08:45:23;100967.91;;;3.53;87.85
12781;BME280;6454;43.304;24.344;2023-01-08T08:47:50;100962.78;;;3.70;88.56
12781;BME280;6454;43.304;24.344;2023-01-08T08:50:17;100954.78;;;3.81;88.47
12781;BME280;6454;43.304;24.344;2023-01-08T08:52:44;100956.84;;;3.86;88.71
12781;BME280;6454;43.304;24.344;2023-01-08T08:55:12;100967.34;;;4.06;88.40
12781;BME280;6454;43.304;24.344;2023-01-08T08:57:42;100965.16;;;4.14;87.59
12781;BME280;6454;43.304;24.344;2023-01-08T09:00:10;100961.38;;;4.22;86.72
12781;BME280;6454;43.304;24.344;2023-01-08T09:02:37;100970.84;;;4.24;86.18
12781;BME280;6454;43.304;24.344;2023-01-08T09:05:04;100965.41;;;4.31;86.02
12781;BME280;6454;43.304;24.344;2023-01-08T09:07:31;100960.81;;;4.31;85.63
12781;BME280;6454;43.304;24.344;2023-01-08T09:09:58;100960.91;;;4.43;85.48
12781;BME280;6454;43.304;24.344;2023-01-08T09:12:26;100966.78;;;4.51;85.84
12781;BME280;6454;43.304;24.344;2023-01-08T09:14:53;100959.38;;;4.65;86.20
12781;BME280;6454;43.304;24.344;2023-01-08T09:17:21;100962.81;;;4.84;87.28
12781;BME280;6454;43.304;24.344;2023-01-08T09:19:49;100954.78;;;4.95;87.44
12781;BME280;6454;43.304;24.344;2023-01-08T09:22:16;100956.53;;;5.01;87.38
12781;BME280;6454;43.304;24.344;2023-01-08T09:24:43;100950.25;;;5.07;87.09
12781;BME280;6454;43.304;24.344;2023-01-08T09:27:09;100960.56;;;5.10;86.49
12781;BME280;6454;43.304;24.344;2023-01-08T09:29:38;100957.31;;;5.20;86.43
12781;BME280;6454;43.304;24.344;2023-01-08T09:32:05;100946.66;;;5.25;85.55
12781;BME280;6454;43.304;24.344;2023-01-08T09:34:32;100944.56;;;5.27;85.72
12781;BME280;6454;43.304;24.344;2023-01-08T09:37:00;100948.41;;;5.31;85.95
12781;BME280;6454;43.304;24.344;2023-01-08T09:39:27;100942.69;;;5.28;86.09
12781;BME280;6454;43.304;24.344;2023-01-08T09:41:54;100942.81;;;5.33;86.50
12781;BME280;6454;43.304;24.344;2023-01-08T09:44:27;100936.38;;;5.34;86.41
12781;BME280;6454;43.304;24.344;2023-01-08T09:46:57;100928.78;;;5.31;85.71
12781;BME280;6454;43.304;24.344;2023-01-08T09:49:32;100933.69;;;5.34;85.89
12781;BME280;6454;43.304;24.344;2023-01-08T09:52:03;100928.28;;;5.34;85.94
12781;BME280;6454;43.304;24.344;2023-01-08T09:54:30;100926.22;;;5.36;86.04
12781;BME280;6454;43.304;24.344;2023-01-08T09:56:58;100923.03;;;5.39;86.37
12781;BME280;6454;43.304;24.344;2023-01-08T09:59:25;100878.69;;;5.06;85.58
12781;BME280;6454;43.304;24.344;2023-01-08T10:01:52;100922.78;;;5.29;85.49
12781;BME280;6454;43.304;24.344;2023-01-08T10:04:23;100912.28;;;5.27;85.88
12781;BME280;6454;43.304;24.344;2023-01-08T10:06:53;100914.38;;;5.25;85.22
12781;BME280;6454;43.304;24.344;2023-01-08T10:09:24;100912.63;;;5.19;84.86
12781;BME280;6454;43.304;24.344;2023-01-08T10:11:54;100920.69;;;5.07;85.23
12781;BME280;6454;43.304;24.344;2023-01-08T10:14:23;100908.16;;;5.01;85.67
12781;BME280;6454;43.304;24.344;2023-01-08T10:16:55;100910.94;;;4.95;86.45
12781;BME280;6454;43.304;24.344;2023-01-08T10:19:24;100905.44;;;4.90;86.93
12781;BME280;6454;43.304;24.344;2023-01-08T10:21:52;100901.22;;;4.94;87.28
12781;BME280;6454;43.304;24.344;2023-01-08T10:24:30;100904.16;;;4.92;86.42
12781;BME280;6454;43.304;24.344;2023-01-08T10:27:05;100897.00;;;4.86;86.19
12781;BME280;6454;43.304;24.344;2023-01-08T10:29:32;100896.75;;;4.76;86.79
12781;BME280;6454;43.304;24.344;2023-01-08T10:32:06;100896.03;;;4.69;86.80
12781;BME280;6454;43.304;24.344;2023-01-08T10:34:42;100863.63;;;4.41;87.21
12781;BME280;6454;43.304;24.344;2023-01-08T10:37:15;100889.03;;;4.68;88.39
12781;BME280;6454;43.304;24.344;2023-01-08T10:39:45;100867.03;;;4.60;88.94
12781;BME280;6454;43.304;24.344;2023-01-08T10:42:14;100884.25;;;4.70;88.77
12781;BME280;6454;43.304;24.344;2023-01-08T10:44:50;100882.59;;;4.69;88.84
12781;BME280;6454;43.304;24.344;2023-01-08T10:47:18;100884.22;;;4.59;88.71
12781;BME280;6454;43.304;24.344;2023-01-08T10:49:47;100888.84;;;4.51;89.47
12781;BME280;6454;43.304;24.344;2023-01-08T10:52:26;100835.97;;;4.22;90.05
12781;BME280;6454;43.304;24.344;2023-01-08T10:54:54;100881.41;;;4.53;89.73
12781;BME280;6454;43.304;24.344;2023-01-08T10:57:24;100881.16;;;4.55;89.81
12781;BME280;6454;43.304;24.344;2023-01-08T10:59:51;100895.06;;;4.52;89.39
12781;BME280;6454;43.304;24.344;2023-01-08T11:02:31;100888.38;;;4.43;89.67
12781;BME280;6454;43.304;24.344;2023-01-08T11:05:00;100878.34;;;4.50;89.67
12781;BME280;6454;43.304;24.344;2023-01-08T11:07:30;100871.81;;;4.46;88.75
12781;BME280;6454;43.304;24.344;2023-01-08T11:10:00;100881.59;;;4.40;88.91
12781;BME280;6454;43.304;24.344;2023-01-08T11:12:34;100868.22;;;4.34;89.60
12781;BME280;6454;43.304;24.344;2023-01-08T11:15:02;100880.53;;;4.41;89.12
12781;BME280;6454;43.304;24.344;2023-01-08T11:17:29;100882.75;;;4.44;88.50
12781;BME280;6454;43.304;24.344;2023-01-08T11:20:09;100881.88;;;4.50;88.84
12781;BME280;6454;43.304;24.344;2023-01-08T11:22:44;100893.09;;;4.59;88.73
12781;BME280;6454;43.304;24.344;2023-01-08T11:25:12;100896.13;;;4.51;88.53
12781;BME280;6454;43.304;24.344;2023-01-08T11:27:41;100883.03;;;4.54;88.09
12781;BME280;6454;43.304;24.344;2023-01-08T11:30:12;100885.38;;;4.51;87.90
12781;BME280;6454;43.304;24.344;2023-01-08T11:32:43;100891.09;;;4.54;87.64
12781;BME280;6454;43.304;24.344;2023-01-08T11:35:16;100895.88;;;4.52;88.29
12781;BME280;6454;43.304;24.344;2023-01-08T11:37:49;100888.13;;;4.44;88.70
12781;BME280;6454;43.304;24.344;2023-01-08T11:40:17;100882.56;;;4.46;88.52
12781;BME280;6454;43.304;24.344;2023-01-08T11:43:05;100880.06;;;4.44;89.13
12781;BME280;6454;43.304;24.344;2023-01-08T11:45:47;100883.16;;;4.60;88.19
12781;BME280;6454;43.304;24.344;2023-01-08T11:48:34;100885.53;;;4.68;86.98
12781;BME280;6454;43.304;24.344;2023-01-08T11:51:35;100884.84;;;4.72;86.75
12781;BME280;6454;43.304;24.344;2023-01-08T11:54:17;100890.19;;;4.61;86.26
12781;BME280;6454;43.304;24.344;2023-01-08T11:57:00;100888.78;;;4.58;86.26
12781;BME280;6454;43.304;24.344;2023-01-08T11:59:39;100890.00;;;4.44;86.62
12781;BME280;6454;43.304;24.344;2023-01-08T12:02:18;100896.88;;;4.40;87.12
12781;BME280;6454;43.304;24.344;2023-01-08T12:05:05;100894.78;;;4.42;87.19
12781;BME280;6454;43.304;24.344;2023-01-08T12:07:43;100891.06;;;4.43;87.33
12781;BME280;6454;43.304;24.344;2023-01-08T12:10:19;100886.84;;;4.47;87.52
12781;BME280;6454;43.304;24.344;2023-01-08T12:12:55;100888.97;;;4.45;87.39
12781;BME280;6454;43.304;24.344;2023-01-08T12:15:34;100876.34;;;4.45;87.35
12781;BME280;6454;43.304;24.344;2023-01-08T12:18:20;100876.38;;;4.57;87.09
12781;BME280;6454;43.304;24.344;2023-01-08T12:20:55;100882.34;;;4.59;86.74
12781;BME280;6454;43.304;24.344;2023-01-08T12:23:36;100876.38;;;4.57;86.49
12781;BME280;6454;43.304;24.344;2023-01-08T12:26:18;100873.28;;;4.42;87.40
12781;BME280;6454;43.304;24.344;2023-01-08T12:29:10;100870.53;;;4.48;86.81
12781;BME280;6454;43.304;24.344;2023-01-08T12:35:04;100858.69;;;4.38;87.54
12781;BME280;6454;43.304;24.344;2023-01-08T12:37:39;100861.25;;;4.33;88.07
12781;BME280;6454;43.304;24.344;2023-01-08T12:40:14;100862.41;;;4.37;87.99
12781;BME280;6454;43.304;24.344;2023-01-08T12:42:44;100864.75;;;4.33;88.32
12781;BME280;6454;43.304;24.344;2023-01-08T12:45:18;100860.25;;;4.45;87.42
12781;BME280;6454;43.304;24.344;2023-01-08T12:47:51;100863.63;;;4.41;87.28
12781;BME280;6454;43.304;24.344;2023-01-08T12:50:24;100859.41;;;4.45;87.44
12781;BME280;6454;43.304;24.344;2023-01-08T12:52:57;100850.25;;;4.34;87.74
12781;BME280;6454;43.304;24.344;2023-01-08T12:55:35;100853.31;;;4.38;87.52
12781;BME280;6454;43.304;24.344;2023-01-08T12:58:25;100785.41;;;3.89;88.08
12781;BME280;6454;43.304;24.344;2023-01-08T13:00:59;100854.59;;;4.35;87.80
12781;BME280;6454;43.304;24.344;2023-01-08T13:03:32;100844.03;;;4.22;88.07
12781;BME280;6454;43.304;24.344;2023-01-08T13:06:07;100859.16;;;4.35;88.38
12781;BME280;6454;43.304;24.344;2023-01-08T13:08:36;100849.22;;;4.35;87.91
12781;BME280;6454;43.304;24.344;2023-01-08T13:11:06;100853.66;;;4.41;87.43